LFLL/LYS METAR and TAF weather

Enter ICAO airport designator
Station Type Date Time Source
LFLL METAR 2021/07/30 23:00 UTC NOAA

LFLL 302300Z 20002KT CAVOK 19/17 Q1014 NOSIG


Station Type Date Time Source
LFLL Decoded METAR 2021/07/30 23:00 UTC NOAA

Lyon / Satolas, France (LFLL) 45-44N 005-05E 240M
Jul 30, 2021 - 07:00 PM EDT / 2021.07.30 2300 UTC
Wind: from the SSW (200 degrees) at 2 MPH (2 KT):0
Visibility: greater than 7 mile(s):0
Temperature: 66 F (19 C)
Dew Point: 62 F (17 C)
Relative Humidity: 88%
Pressure (altimeter): 29.94 in. Hg (1014 hPa)
ob: LFLL 302300Z 20002KT CAVOK 19/17 Q1014 NOSIG
cycle: 23

Station Type Date Time Source
LFLL TAF 2021/07/30 18:21 UTC NOAA

TAF LFLL 301700Z 3018/3124 VRB02KT 9999 BKN040 PROB30
TEMPO 3021/3106 0700 BCFG
BECMG 3106/3109 35009KT FEW040 PROB40
TEMPO 3114/3124 SHRA SCT080TCU
BECMG 3120/3124 VRB02KT

Example: see airport list